sensor_id;sensor_type;location;lat;lon;timestamp;pressure;altitude;pressure_sealevel;temperature;humidity
53546;BME280;39432;51.902;10.844;2023-03-12T00:01:37;99075.31;;;0.55;100.00
53546;BME280;39432;51.902;10.844;2023-03-12T00:04:07;99079.03;;;0.67;100.00
53546;BME280;39432;51.902;10.844;2023-03-12T00:06:37;99079.00;;;0.74;100.00
53546;BME280;39432;51.902;10.844;2023-03-12T00:09:06;99071.78;;;0.74;100.00
53546;BME280;39432;51.902;10.844;2023-03-12T00:11:36;99077.34;;;0.79;100.00
53546;BME280;39432;51.902;10.844;2023-03-12T00:14:06;99078.59;;;0.64;100.00
53546;BME280;39432;51.902;10.844;2023-03-12T00:16:38;99085.63;;;0.58;100.00
53546;BME280;39432;51.902;10.844;2023-03-12T00:19:10;99078.16;;;0.60;100.00
53546;BME280;39432;51.902;10.844;2023-03-12T00:21:41;99082.72;;;0.53;100.00
53546;BME280;39432;51.902;10.844;2023-03-12T00:24:10;99083.38;;;0.55;100.00
53546;BME280;39432;51.902;10.844;2023-03-12T00:26:40;99081.06;;;0.65;100.00
53546;BME280;39432;51.902;10.844;2023-03-12T00:29:09;99086.88;;;0.62;100.00
53546;BME280;39432;51.902;10.844;2023-03-12T00:31:42;99093.09;;;0.63;100.00
53546;BME280;39432;51.902;10.844;2023-03-12T00:34:11;99090.19;;;0.64;100.00
53546;BME280;39432;51.902;10.844;2023-03-12T00:36:41;99089.38;;;0.57;100.00
53546;BME280;39432;51.902;10.844;2023-03-12T00:39:10;99097.22;;;0.52;100.00
53546;BME280;39432;51.902;10.844;2023-03-12T00:41:40;99093.09;;;0.56;100.00
53546;BME280;39432;51.902;10.844;2023-03-12T00:44:10;99096.41;;;0.58;100.00
53546;BME280;39432;51.902;10.844;2023-03-12T00:46:42;99086.06;;;0.68;100.00
53546;BME280;39432;51.902;10.844;2023-03-12T00:49:12;99089.75;;;0.54;100.00
53546;BME280;39432;51.902;10.844;2023-03-12T00:51:41;99088.75;;;0.62;100.00
53546;BME280;39432;51.902;10.844;2023-03-12T00:54:11;99085.63;;;0.51;100.00
53546;BME280;39432;51.902;10.844;2023-03-12T00:56:41;99096.19;;;0.53;100.00
53546;BME280;39432;51.902;10.844;2023-03-12T00:59:12;99090.63;;;0.61;100.00
53546;BME280;39432;51.902;10.844;2023-03-12T01:01:44;99095.56;;;0.64;100.00
53546;BME280;39432;51.902;10.844;2023-03-12T01:04:15;99085.03;;;0.56;100.00
53546;BME280;39432;51.902;10.844;2023-03-12T01:06:45;99083.38;;;0.55;100.00
53546;BME280;39432;51.902;10.844;2023-03-12T01:09:15;99088.53;;;0.50;100.00
53546;BME280;39432;51.902;10.844;2023-03-12T01:11:45;99091.00;;;0.51;100.00
53546;BME280;39432;51.902;10.844;2023-03-12T01:14:14;99086.47;;;0.52;100.00
53546;BME280;39432;51.902;10.844;2023-03-12T01:16:47;99088.13;;;0.66;100.00
53546;BME280;39432;51.902;10.844;2023-03-12T01:19:19;99083.16;;;0.63;100.00
53546;BME280;39432;51.902;10.844;2023-03-12T01:21:48;99074.44;;;0.55;100.00
53546;BME280;39432;51.902;10.844;2023-03-12T01:24:18;99081.06;;;0.65;100.00
53546;BME280;39432;51.902;10.844;2023-03-12T01:26:48;99080.25;;;0.58;100.00
53546;BME280;39432;51.902;10.844;2023-03-12T01:29:17;99073.66;;;0.61;100.00
53546;BME280;39432;51.902;10.844;2023-03-12T01:31:50;99072.16;;;0.71;100.00
53546;BME280;39432;51.902;10.844;2023-03-12T01:34:19;99068.44;;;0.59;100.00
53546;BME280;39432;51.902;10.844;2023-03-12T01:36:49;99077.97;;;0.68;100.00
53546;BME280;39432;51.902;10.844;2023-03-12T01:39:19;99071.78;;;0.61;100.00
53546;BME280;39432;51.902;10.844;2023-03-12T01:41:48;99072.38;;;0.43;100.00
53546;BME280;39432;51.902;10.844;2023-03-12T01:44:18;99071.53;;;0.43;100.00
53546;BME280;39432;51.902;10.844;2023-03-12T01:46:50;99071.75;;;0.55;100.00
53546;BME280;39432;51.902;10.844;2023-03-12T01:49:24;99071.97;;;0.53;100.00
53546;BME280;39432;51.902;10.844;2023-03-12T01:51:58;99078.38;;;0.59;100.00
53546;BME280;39432;51.902;10.844;2023-03-12T01:54:36;99072.38;;;0.63;100.00
53546;BME280;39432;51.902;10.844;2023-03-12T01:57:14;99073.00;;;0.59;100.00
53546;BME280;39432;51.902;10.844;2023-03-12T01:59:46;99069.91;;;0.55;100.00
53546;BME280;39432;51.902;10.844;2023-03-12T02:02:22;99074.47;;;0.61;100.00
53546;BME280;39432;51.902;10.844;2023-03-12T02:05:04;99070.31;;;0.52;100.00
53546;BME280;39432;51.902;10.844;2023-03-12T02:07:35;99064.09;;;0.58;100.00
53546;BME280;39432;51.902;10.844;2023-03-12T02:10:06;99063.28;;;0.51;100.00
53546;BME280;39432;51.902;10.844;2023-03-12T02:12:35;99065.34;;;0.62;100.00
53546;BME280;39432;51.902;10.844;2023-03-12T02:15:06;99058.28;;;0.55;100.00
53546;BME280;39432;51.902;10.844;2023-03-12T02:17:39;99060.38;;;0.59;100.00
53546;BME280;39432;51.902;10.844;2023-03-12T02:20:14;99052.09;;;0.54;100.00
53546;BME280;39432;51.902;10.844;2023-03-12T02:22:49;99057.25;;;0.49;100.00
53546;BME280;39432;51.902;10.844;2023-03-12T02:25:27;99057.50;;;0.67;100.00
53546;BME280;39432;51.902;10.844;2023-03-12T02:28:02;99051.69;;;0.57;100.00
53546;BME280;39432;51.902;10.844;2023-03-12T02:30:35;99055.00;;;0.59;100.00
53546;BME280;39432;51.902;10.844;2023-03-12T02:33:08;99055.00;;;0.59;100.00
53546;BME280;39432;51.902;10.844;2023-03-12T02:35:38;99059.16;;;0.62;100.00
53546;BME280;39432;51.902;10.844;2023-03-12T02:41:19;99060.16;;;0.54;100.00
53546;BME280;39432;51.902;10.844;2023-03-12T02:43:55;99057.88;;;0.64;100.00
53546;BME280;39432;51.902;10.844;2023-03-12T02:46:29;99050.03;;;0.69;100.00
53546;BME280;39432;51.902;10.844;2023-03-12T02:49:01;99061.22;;;0.79;100.00
53546;BME280;39432;51.902;10.844;2023-03-12T02:51:31;99060.38;;;0.79;100.00
53546;BME280;39432;51.902;10.844;2023-03-12T02:54:00;99063.03;;;0.99;100.00
53546;BME280;39432;51.902;10.844;2023-03-12T02:56:33;99064.09;;;0.85;100.00
53546;BME280;39432;51.902;10.844;2023-03-12T02:59:03;99062.03;;;1.00;100.00
53546;BME280;39432;51.902;10.844;2023-03-12T03:01:37;99061.19;;;1.06;100.00
53546;BME280;39432;51.902;10.844;2023-03-12T03:04:08;99063.00;;;1.19;100.00
53546;BME280;39432;51.902;10.844;2023-03-12T03:06:40;99063.84;;;1.13;100.00
53546;BME280;39432;51.902;10.844;2023-03-12T03:09:13;99075.41;;;1.40;100.00
53546;BME280;39432;51.902;10.844;2023-03-12T03:11:45;99070.59;;;1.48;100.00
53546;BME280;39432;51.902;10.844;2023-03-12T03:14:15;99067.16;;;1.15;99.17
53546;BME280;39432;51.902;10.844;2023-03-12T03:16:48;99068.19;;;1.14;99.57
53546;BME280;39432;51.902;10.844;2023-03-12T03:19:21;99069.91;;;0.95;99.54
53546;BME280;39432;51.902;10.844;2023-03-12T03:21:51;99074.97;;;1.43;99.69
53546;BME280;39432;51.902;10.844;2023-03-12T03:24:21;99067.19;;;0.95;100.00
53546;BME280;39432;51.902;10.844;2023-03-12T03:26:53;99078.16;;;1.26;99.76
53546;BME280;39432;51.902;10.844;2023-03-12T03:29:22;99075.28;;;0.75;100.00
53546;BME280;39432;51.902;10.844;2023-03-12T03:31:52;99072.69;;;1.46;100.00
53546;BME280;39432;51.902;10.844;2023-03-12T03:34:22;99070.28;;;1.12;100.00
53546;BME280;39432;51.902;10.844;2023-03-12T03:36:52;99063.88;;;0.93;100.00
53546;BME280;39432;51.902;10.844;2023-03-12T03:39:22;99074.41;;;1.14;100.00
53546;BME280;39432;51.902;10.844;2023-03-12T03:41:54;99068.66;;;0.84;100.00
53546;BME280;39432;51.902;10.844;2023-03-12T03:44:25;99072.34;;;1.10;100.00
53546;BME280;39432;51.902;10.844;2023-03-12T03:46:56;99074.41;;;1.27;99.45
53546;BME280;39432;51.902;10.844;2023-03-12T03:49:25;99072.19;;;1.04;99.25
53546;BME280;39432;51.902;10.844;2023-03-12T03:51:55;99076.84;;;1.49;98.96
53546;BME280;39432;51.902;10.844;2023-03-12T03:54:31;99080.94;;;1.58;98.00
53546;BME280;39432;51.902;10.844;2023-03-12T03:57:04;99078.28;;;1.96;96.00
53546;BME280;39432;51.902;10.844;2023-03-12T03:59:34;99081.22;;;1.95;93.04
53546;BME280;39432;51.902;10.844;2023-03-12T04:02:04;99079.03;;;1.72;92.58
53546;BME280;39432;51.902;10.844;2023-03-12T04:04:36;99087.56;;;1.62;91.63
53546;BME280;39432;51.902;10.844;2023-03-12T04:07:07;99085.94;;;1.48;91.50
53546;BME280;39432;51.902;10.844;2023-03-12T04:09:37;99086.44;;;1.18;92.30
53546;BME280;39432;51.902;10.844;2023-03-12T04:12:10;99087.44;;;0.11;95.62
53546;BME280;39432;51.902;10.844;2023-03-12T04:14:41;99099.41;;;-0.46;99.25
53546;BME280;39432;51.902;10.844;2023-03-12T04:17:11;99100.63;;;-1.61;100.00
53546;BME280;39432;51.902;10.844;2023-03-12T04:19:41;99108.16;;;-1.00;100.00
53546;BME280;39432;51.902;10.844;2023-03-12T04:22:10;99097.38;;;-1.35;100.00
53546;BME280;39432;51.902;10.844;2023-03-12T04:24:40;99107.19;;;-1.20;100.00
53546;BME280;39432;51.902;10.844;2023-03-12T04:27:12;99099.69;;;-1.31;100.00
53546;BME280;39432;51.902;10.844;2023-03-12T04:29:42;99105.16;;;-1.61;100.00
53546;BME280;39432;51.902;10.844;2023-03-12T04:32:12;99100.06;;;-1.77;100.00
53546;BME280;39432;51.902;10.844;2023-03-12T04:34:42;99094.84;;;-1.64;100.00
53546;BME280;39432;51.902;10.844;2023-03-12T04:37:14;99097.00;;;-0.69;100.00
53546;BME280;39432;51.902;10.844;2023-03-12T04:39:44;99090.72;;;-0.48;100.00
53546;BME280;39432;51.902;10.844;2023-03-12T04:42:17;99094.56;;;-0.64;100.00
53546;BME280;39432;51.902;10.844;2023-03-12T04:44:49;99087.38;;;-0.57;100.00
53546;BME280;39432;51.902;10.844;2023-03-12T04:47:19;99090.50;;;-0.46;100.00
53546;BME280;39432;51.902;10.844;2023-03-12T04:49:48;99089.25;;;-0.50;100.00
53546;BME280;39432;51.902;10.844;2023-03-12T04:52:18;99083.81;;;-0.64;100.00
53546;BME280;39432;51.902;10.844;2023-03-12T04:54:48;99083.75;;;-1.05;100.00
53546;BME280;39432;51.902;10.844;2023-03-12T04:57:20;99086.09;;;-1.73;100.00
53546;BME280;39432;51.902;10.844;2023-03-12T04:59:50;99087.06;;;-1.80;100.00
53546;BME280;39432;51.902;10.844;2023-03-12T05:02:20;99095.28;;;-1.11;100.00
53546;BME280;39432;51.902;10.844;2023-03-12T05:04:49;99092.41;;;-1.80;100.00
53546;BME280;39432;51.902;10.844;2023-03-12T05:07:19;99087.13;;;-1.52;100.00
53546;BME280;39432;51.902;10.844;2023-03-12T05:09:49;99091.91;;;-1.69;100.00
53546;BME280;39432;51.902;10.844;2023-03-12T05:12:21;99100.53;;;-0.68;100.00
53546;BME280;39432;51.902;10.844;2023-03-12T05:14:51;99096.59;;;-1.50;100.00
53546;BME280;39432;51.902;10.844;2023-03-12T05:17:20;99098.53;;;-1.65;100.00
53546;BME280;39432;51.902;10.844;2023-03-12T05:19:50;99103.34;;;-2.18;100.00
53546;BME280;39432;51.902;10.844;2023-03-12T05:22:20;99109.50;;;-1.39;100.00
53546;BME280;39432;51.902;10.844;2023-03-12T05:24:50;99106.22;;;-1.13;100.00
53546;BME280;39432;51.902;10.844;2023-03-12T05:27:22;99104.75;;;-1.15;100.00
53546;BME280;39432;51.902;10.844;2023-03-12T05:29:54;99106.44;;;-1.57;100.00
53546;BME280;39432;51.902;10.844;2023-03-12T05:32:24;99099.47;;;-1.94;100.00
53546;BME280;39432;51.902;10.844;2023-03-12T05:34:54;99103.13;;;-2.02;100.00
53546;BME280;39432;51.902;10.844;2023-03-12T05:37:24;99092.34;;;-1.66;100.00
53546;BME280;39432;51.902;10.844;2023-03-12T05:39:54;99094.50;;;-1.76;100.00
53546;BME280;39432;51.902;10.844;2023-03-12T05:42:26;99099.38;;;-1.65;100.00
53546;BME280;39432;51.902;10.844;2023-03-12T05:44:57;99105.00;;;-0.82;100.00
53546;BME280;39432;51.902;10.844;2023-03-12T05:47:27;99101.47;;;-0.48;100.00
53546;BME280;39432;51.902;10.844;2023-03-12T05:49:56;99098.69;;;-0.27;100.00
53546;BME280;39432;51.902;10.844;2023-03-12T05:52:26;99103.63;;;-0.71;100.00
53546;BME280;39432;51.902;10.844;2023-03-12T05:54:56;99094.88;;;-0.39;100.00
53546;BME280;39432;51.902;10.844;2023-03-12T05:57:28;99096.63;;;-0.66;100.00
53546;BME280;39432;51.902;10.844;2023-03-12T05:59:59;99093.41;;;-0.83;100.00
53546;BME280;39432;51.902;10.844;2023-03-12T06:02:38;99088.72;;;-0.33;100.00
53546;BME280;39432;51.902;10.844;2023-03-12T06:05:09;99094.63;;;-0.85;100.00
53546;BME280;39432;51.902;10.844;2023-03-12T06:07:39;99092.94;;;-0.93;100.00
53546;BME280;39432;51.902;10.844;2023-03-12T06:10:10;99088.19;;;-0.56;100.00
53546;BME280;39432;51.902;10.844;2023-03-12T06:12:42;99080.03;;;0.33;100.00
53546;BME280;39432;51.902;10.844;2023-03-12T06:15:12;99081.25;;;0.24;100.00
53546;BME280;39432;51.902;10.844;2023-03-12T06:17:42;99094.34;;;-0.62;100.00
53546;BME280;39432;51.902;10.844;2023-03-12T06:20:12;99077.00;;;-0.18;100.00
53546;BME280;39432;51.902;10.844;2023-03-12T06:22:42;99079.50;;;-0.58;100.00
53546;BME280;39432;51.902;10.844;2023-03-12T06:25:12;99068.63;;;0.24;100.00
53546;BME280;39432;51.902;10.844;2023-03-12T06:27:44;99064.38;;;-0.11;100.00
53546;BME280;39432;51.902;10.844;2023-03-12T06:30:14;99065.13;;;0.44;100.00
53546;BME280;39432;51.902;10.844;2023-03-12T06:32:44;99065.13;;;0.31;100.00
53546;BME280;39432;51.902;10.844;2023-03-12T06:35:14;99069.25;;;0.26;100.00
53546;BME280;39432;51.902;10.844;2023-03-12T06:37:44;99068.25;;;0.61;100.00
53546;BME280;39432;51.902;10.844;2023-03-12T06:40:14;99066.56;;;1.06;100.00
53546;BME280;39432;51.902;10.844;2023-03-12T06:42:46;99070.72;;;0.62;100.00
53546;BME280;39432;51.902;10.844;2023-03-12T06:45:15;99056.63;;;0.87;100.00
53546;BME280;39432;51.902;10.844;2023-03-12T06:47:45;99058.31;;;0.61;100.00
53546;BME280;39432;51.902;10.844;2023-03-12T06:50:15;99046.44;;;1.09;100.00
53546;BME280;39432;51.902;10.844;2023-03-12T06:52:45;99042.59;;;1.56;100.00
53546;BME280;39432;51.902;10.844;2023-03-12T06:55:15;99048.59;;;1.58;100.00
53546;BME280;39432;51.902;10.844;2023-03-12T06:57:47;99048.16;;;1.68;100.00
53546;BME280;39432;51.902;10.844;2023-03-12T07:00:18;99053.03;;;1.33;100.00
53546;BME280;39432;51.902;10.844;2023-03-12T07:02:47;99048.63;;;1.51;100.00
53546;BME280;39432;51.902;10.844;2023-03-12T07:05:17;99044.44;;;1.62;100.00
53546;BME280;39432;51.902;10.844;2023-03-12T07:07:47;99047.91;;;1.69;100.00
53546;BME280;39432;51.902;10.844;2023-03-12T07:10:17;99052.13;;;2.03;100.00
53546;BME280;39432;51.902;10.844;2023-03-12T07:12:49;99050.78;;;1.81;100.00
53546;BME280;39432;51.902;10.844;2023-03-12T07:15:19;99049.22;;;2.05;100.00
53546;BME280;39432;51.902;10.844;2023-03-12T07:17:48;99043.78;;;2.93;100.00
53546;BME280;39432;51.902;10.844;2023-03-12T07:20:19;99038.50;;;2.55;100.00
53546;BME280;39432;51.902;10.844;2023-03-12T07:22:48;99030.50;;;2.10;96.91
53546;BME280;39432;51.902;10.844;2023-03-12T07:25:18;99037.38;;;2.87;95.66
53546;BME280;39432;51.902;10.844;2023-03-12T07:27:50;99026.19;;;2.84;93.87
53546;BME280;39432;51.902;10.844;2023-03-12T07:30:20;99028.09;;;3.02;92.18
53546;BME280;39432;51.902;10.844;2023-03-12T07:32:50;99027.78;;;2.67;90.12
53546;BME280;39432;51.902;10.844;2023-03-12T07:35:20;99017.25;;;2.83;91.09
53546;BME280;39432;51.902;10.844;2023-03-12T07:37:49;99023.97;;;2.99;88.26
53546;BME280;39432;51.902;10.844;2023-03-12T07:40:19;99027.94;;;2.47;87.78
53546;BME280;39432;51.902;10.844;2023-03-12T07:42:51;99023.38;;;2.72;89.24
53546;BME280;39432;51.902;10.844;2023-03-12T07:45:22;99012.25;;;2.87;87.59
53546;BME280;39432;51.902;10.844;2023-03-12T07:47:52;99007.66;;;2.87;87.06
53546;BME280;39432;51.902;10.844;2023-03-12T07:50:22;99006.09;;;2.98;86.53
53546;BME280;39432;51.902;10.844;2023-03-12T07:52:51;99002.00;;;3.32;85.76
53546;BME280;39432;51.902;10.844;2023-03-12T07:55:21;98997.25;;;3.09;85.99
53546;BME280;39432;51.902;10.844;2023-03-12T07:57:53;98989.94;;;3.65;86.54
53546;BME280;39432;51.902;10.844;2023-03-12T08:00:26;98999.84;;;3.71;85.31
53546;BME280;39432;51.902;10.844;2023-03-12T08:02:56;98989.13;;;3.64;83.59
53546;BME280;39432;51.902;10.844;2023-03-12T08:05:26;99001.56;;;3.35;84.56
53546;BME280;39432;51.902;10.844;2023-03-12T08:07:55;99003.34;;;3.41;84.37
53546;BME280;39432;51.902;10.844;2023-03-12T08:10:25;99001.06;;;3.02;84.82
53546;BME280;39432;51.902;10.844;2023-03-12T08:12:57;98998.38;;;3.38;85.18
53546;BME280;39432;51.902;10.844;2023-03-12T08:15:27;98988.53;;;3.07;84.15
53546;BME280;39432;51.902;10.844;2023-03-12T08:17:57;98986.69;;;3.08;85.27
53546;BME280;39432;51.902;10.844;2023-03-12T08:20:27;98993.28;;;3.49;85.31
53546;BME280;39432;51.902;10.844;2023-03-12T08:22:56;98984.72;;;3.52;85.23
53546;BME280;39432;51.902;10.844;2023-03-12T08:25:26;98985.97;;;3.97;83.98
53546;BME280;39432;51.902;10.844;2023-03-12T08:27:58;98990.97;;;3.82;83.94
53546;BME280;39432;51.902;10.844;2023-03-12T08:30:28;98986.72;;;4.28;82.55
53546;BME280;39432;51.902;10.844;2023-03-12T08:32:58;98985.69;;;4.29;82.46
53546;BME280;39432;51.902;10.844;2023-03-12T08:35:27;98978.16;;;4.31;81.52
53546;BME280;39432;51.902;10.844;2023-03-12T08:37:57;98996.00;;;4.09;82.87
53546;BME280;39432;51.902;10.844;2023-03-12T08:40:27;98985.22;;;4.32;81.50
53546;BME280;39432;51.902;10.844;2023-03-12T08:42:59;98990.31;;;4.40;81.08
53546;BME280;39432;51.902;10.844;2023-03-12T08:45:29;98997.28;;;4.60;79.26
53546;BME280;39432;51.902;10.844;2023-03-12T08:47:59;98995.19;;;4.62;79.50
53546;BME280;39432;51.902;10.844;2023-03-12T08:50:29;98993.84;;;4.53;81.26
53546;BME280;39432;51.902;10.844;2023-03-12T08:52:58;98986.81;;;4.10;81.10
53546;BME280;39432;51.902;10.844;2023-03-12T08:55:28;98979.25;;;4.54;81.52
53546;BME280;39432;51.902;10.844;2023-03-12T08:58:00;98972.78;;;5.01;81.14
53546;BME280;39432;51.902;10.844;2023-03-12T09:00:30;98974.25;;;4.15;80.66
53546;BME280;39432;51.902;10.844;2023-03-12T09:03:00;98960.47;;;4.17;81.09
53546;BME280;39432;51.902;10.844;2023-03-12T09:05:29;98957.13;;;4.92;80.63
53546;BME280;39432;51.902;10.844;2023-03-12T09:07:59;98952.41;;;4.75;79.92
53546;BME280;39432;51.902;10.844;2023-03-12T09:10:29;98952.28;;;4.82;79.33
53546;BME280;39432;51.902;10.844;2023-03-12T09:13:02;98952.03;;;4.60;79.53
53546;BME280;39432;51.902;10.844;2023-03-12T09:15:32;98960.47;;;5.34;79.79
53546;BME280;39432;51.902;10.844;2023-03-12T09:18:02;98964.66;;;5.53;76.18
53546;BME280;39432;51.902;10.844;2023-03-12T09:20:31;98966.41;;;5.08;73.60
53546;BME280;39432;51.902;10.844;2023-03-12T09:23:01;98965.84;;;5.06;75.72
53546;BME280;39432;51.902;10.844;2023-03-12T09:25:33;98967.22;;;5.20;75.08
53546;BME280;39432;51.902;10.844;2023-03-12T09:28:05;98972.00;;;4.12;75.72
53546;BME280;39432;51.902;10.844;2023-03-12T09:30:35;98972.06;;;5.58;76.61
53546;BME280;39432;51.902;10.844;2023-03-12T09:33:04;98961.19;;;5.98;76.67
53546;BME280;39432;51.902;10.844;2023-03-12T09:35:34;98953.50;;;5.26;75.15
53546;BME280;39432;51.902;10.844;2023-03-12T09:38:04;98956.91;;;5.45;73.98
53546;BME280;39432;51.902;10.844;2023-03-12T09:40:35;98956.75;;;5.52;73.65
53546;BME280;39432;51.902;10.844;2023-03-12T09:43:10;98949.38;;;6.04;72.39
53546;BME280;39432;51.902;10.844;2023-03-12T09:45:46;98952.50;;;5.56;72.16
53546;BME280;39432;51.902;10.844;2023-03-12T09:48:17;98948.56;;;5.35;73.80
53546;BME280;39432;51.902;10.844;2023-03-12T09:50:49;98942.16;;;6.10;71.72
53546;BME280;39432;51.902;10.844;2023-03-12T09:53:24;98943.09;;;5.07;69.98
53546;BME280;39432;51.902;10.844;2023-03-12T09:55:58;98942.84;;;4.49;71.58
53546;BME280;39432;51.902;10.844;2023-03-12T09:58:37;98941.69;;;4.81;74.17
53546;BME280;39432;51.902;10.844;2023-03-12T10:01:17;98943.59;;;5.32;74.14
53546;BME280;39432;51.902;10.844;2023-03-12T10:04:06;98950.91;;;5.72;73.60
53546;BME280;39432;51.902;10.844;2023-03-12T10:06:46;98959.19;;;6.39;71.71
53546;BME280;39432;51.902;10.844;2023-03-12T10:09:34;98951.09;;;5.82;71.53
53546;BME280;39432;51.902;10.844;2023-03-12T10:12:14;98951.88;;;6.23;72.87
53546;BME280;39432;51.902;10.844;2023-03-12T10:14:59;98948.88;;;6.75;71.97
53546;BME280;39432;51.902;10.844;2023-03-12T10:17:42;98954.94;;;6.43;69.84
53546;BME280;39432;51.902;10.844;2023-03-12T10:20:45;98947.81;;;6.08;70.07
53546;BME280;39432;51.902;10.844;2023-03-12T10:23:24;98955.38;;;4.74;72.37
53546;BME280;39432;51.902;10.844;2023-03-12T10:26:02;98950.16;;;4.61;76.76
53546;BME280;39432;51.902;10.844;2023-03-12T10:28:36;98961.38;;;3.99;82.54
53546;BME280;39432;51.902;10.844;2023-03-12T10:31:14;98951.50;;;4.05;87.99
53546;BME280;39432;51.902;10.844;2023-03-12T10:33:50;98936.56;;;3.72;90.47
53546;BME280;39432;51.902;10.844;2023-03-12T10:36:24;98931.03;;;3.97;91.15
53546;BME280;39432;51.902;10.844;2023-03-12T10:38:56;98931.06;;;4.44;91.49
53546;BME280;39432;51.902;10.844;2023-03-12T10:41:29;98914.81;;;4.56;91.20
53546;BME280;39432;51.902;10.844;2023-03-12T10:44:03;98924.09;;;3.71;90.02
53546;BME280;39432;51.902;10.844;2023-03-12T10:46:51;98913.78;;;4.68;89.63
53546;BME280;39432;51.902;10.844;2023-03-12T10:49:31;98913.53;;;4.58;90.30
53546;BME280;39432;51.902;10.844;2023-03-12T10:52:05;98897.53;;;4.57;91.15
53546;BME280;39432;51.902;10.844;2023-03-12T10:54:36;98886.28;;;4.88;90.50
53546;BME280;39432;51.902;10.844;2023-03-12T10:57:07;98879.72;;;4.61;91.69
53546;BME280;39432;51.902;10.844;2023-03-12T10:59:38;98872.44;;;4.49;91.48
53546;BME280;39432;51.902;10.844;2023-03-12T11:02:30;98893.50;;;4.83;90.66
53546;BME280;39432;51.902;10.844;2023-03-12T11:05:01;98891.38;;;4.61;89.61
53546;BME280;39432;51.902;10.844;2023-03-12T11:07:32;98894.41;;;4.88;89.59
53546;BME280;39432;51.902;10.844;2023-03-12T11:10:18;98885.53;;;4.29;88.47
53546;BME280;39432;51.902;10.844;2023-03-12T11:12:52;98881.88;;;4.35;90.08
53546;BME280;39432;51.902;10.844;2023-03-12T11:15:24;98877.28;;;3.59;91.50
53546;BME280;39432;51.902;10.844;2023-03-12T11:18:23;98864.44;;;4.08;92.26
53546;BME280;39432;51.902;10.844;2023-03-12T11:20:55;98866.78;;;4.39;93.60
53546;BME280;39432;51.902;10.844;2023-03-12T11:23:28;98869.84;;;4.55;94.61
53546;BME280;39432;51.902;10.844;2023-03-12T11:26:00;98856.31;;;4.43;95.74
53546;BME280;39432;51.902;10.844;2023-03-12T11:28:35;98856.31;;;3.96;95.81
53546;BME280;39432;51.902;10.844;2023-03-12T11:31:10;98848.03;;;4.61;100.00
53546;BME280;39432;51.902;10.844;2023-03-12T11:33:45;98839.84;;;4.96;98.82
53546;BME280;39432;51.902;10.844;2023-03-12T11:36:38;98846.78;;;4.40;98.48
53546;BME280;39432;51.902;10.844;2023-03-12T11:39:17;98838.06;;;4.50;100.00
53546;BME280;39432;51.902;10.844;2023-03-12T11:42:07;98841.59;;;4.04;100.00
53546;BME280;39432;51.902;10.844;2023-03-12T11:44:50;98837.25;;;5.01;100.00
53546;BME280;39432;51.902;10.844;2023-03-12T11:47:31;98836.53;;;4.94;100.00
53546;BME280;39432;51.902;10.844;2023-03-12T11:50:20;98839.22;;;4.66;100.00
53546;BME280;39432;51.902;10.844;2023-03-12T11:53:08;98831.47;;;4.98;100.00
53546;BME280;39432;51.902;10.844;2023-03-12T11:55:59;98834.06;;;4.53;100.00
53546;BME280;39432;51.902;10.844;2023-03-12T11:58:44;98831.81;;;4.49;100.00
53546;BME280;39432;51.902;10.844;2023-03-12T12:01:23;98833.47;;;3.80;100.00
53546;BME280;39432;51.902;10.844;2023-03-12T12:04:05;98824.22;;;4.23;100.00
53546;BME280;39432;51.902;10.844;2023-03-12T12:06:46;98809.13;;;4.51;100.00
53546;BME280;39432;51.902;10.844;2023-03-12T12:09:27;98791.00;;;3.92;100.00
53546;BME280;39432;51.902;10.844;2023-03-12T12:12:16;98799.31;;;3.56;100.00
53546;BME280;39432;51.902;10.844;2023-03-12T12:15:02;98808.44;;;3.96;100.00
53546;BME280;39432;51.902;10.844;2023-03-12T12:17:45;98789.50;;;3.85;100.00
53546;BME280;39432;51.902;10.844;2023-03-12T12:20:20;98779.34;;;3.68;100.00
53546;BME280;39432;51.902;10.844;2023-03-12T12:23:14;98779.69;;;3.95;100.00
53546;BME280;39432;51.902;10.844;2023-03-12T12:26:03;98774.91;;;3.97;100.00
53546;BME280;39432;51.902;10.844;2023-03-12T12:28:48;98782.19;;;3.74;100.00
53546;BME280;39432;51.902;10.844;2023-03-12T12:31:28;98773.25;;;3.96;100.00
53546;BME280;39432;51.902;10.844;2023-03-12T12:34:13;98764.53;;;4.06;100.00
53546;BME280;39432;51.902;10.844;2023-03-12T12:36:49;98768.16;;;4.12;100.00
53546;BME280;39432;51.902;10.844;2023-03-12T12:39:31;98774.66;;;4.74;100.00
53546;BME280;39432;51.902;10.844;2023-03-12T12:42:05;98755.53;;;5.10;100.00
53546;BME280;39432;51.902;10.844;2023-03-12T12:44:41;98748.19;;;4.13;100.00
53546;BME280;39432;51.902;10.844;2023-03-12T12:47:15;98732.63;;;4.60;100.00
53546;BME280;39432;51.902;10.844;2023-03-12T12:49:48;98734.31;;;3.74;100.00
53546;BME280;39432;51.902;10.844;2023-03-12T12:52:20;98725.13;;;3.99;100.00
53546;BME280;39432;51.902;10.844;2023-03-12T12:54:57;98711.47;;;4.57;100.00
53546;BME280;39432;51.902;10.844;2023-03-12T12:57:35;98700.56;;;4.40;100.00
53546;BME280;39432;51.902;10.844;2023-03-12T13:00:18;98694.88;;;4.13;100.00
53546;BME280;39432;51.902;10.844;2023-03-12T13:02:50;98712.66;;;3.97;100.00
53546;BME280;39432;51.902;10.844;2023-03-12T13:05:25;98712.38;;;4.34;100.00
53546;BME280;39432;51.902;10.844;2023-03-12T13:07:55;98700.22;;;4.37;100.00
53546;BME280;39432;51.902;10.844;2023-03-12T13:10:41;98712.97;;;4.65;100.00
53546;BME280;39432;51.902;10.844;2023-03-12T13:13:28;98700.91;;;4.44;100.00
53546;BME280;39432;51.902;10.844;2023-03-12T13:16:17;98706.81;;;4.69;100.00
53546;BME280;39432;51.902;10.844;2023-03-12T13:18:58;98696.44;;;4.38;100.00
53546;BME280;39432;51.902;10.844;2023-03-12T13:21:34;98700.06;;;4.43;100.00
53546;BME280;39432;51.902;10.844;2023-03-12T13:24:17;98693.78;;;4.26;100.00
53546;BME280;39432;51.902;10.844;2023-03-12T13:26:57;98692.31;;;4.47;100.00